Vilassar de Mar, Spain
Current Conditions -  °F | °C
As of 11:30 AM on Sunday 26 Oct 2014 (Local Time) from LELL Reporting Station
Clear Clear  
Wind Chill: 68°   Ceiling: Unl
Heat Index: 68°   Visibility: 6mi
Dew Point: 57°   Wind: 1mph
Humidity: 68%   Direction: NA
Pressure: 30.21"   Gusts: NA
Location:  41.51°N, 2.39°E
Report Text: LELL 260930Z VRB01KT CAVOK 20/14 Q1023
Loading
Personal Weather Stations






























Interactive Weather Map
Tropical Storm Tracking
New forecast layout! Learn more

10-Day Weather Forecast

Advertisements
Track Severe Weather on mobile